createdAt,value
2022-08-11T08:50:27.454Z,26.03
2022-08-11T08:52:43.690Z,26.03
2022-08-11T08:54:51.029Z,25.48
2022-08-11T08:56:56.271Z,25.41
2022-08-11T08:59:01.338Z,25.50
2022-08-11T09:01:04.574Z,25.67
2022-08-11T09:03:29.581Z,25.73
2022-08-11T09:05:30.100Z,25.85
2022-08-11T09:07:39.063Z,25.81
2022-08-11T09:09:45.225Z,26.15
2022-08-11T09:11:53.673Z,26.24
2022-08-11T09:14:05.150Z,25.87
2022-08-11T09:16:11.927Z,25.82
2022-08-11T09:18:18.071Z,25.87
2022-08-11T09:20:24.846Z,26.05
2022-08-11T09:22:47.252Z,26.05
2022-08-11T09:25:10.174Z,26.24
2022-08-11T09:27:13.774Z,26.40
2022-08-11T09:29:16.425Z,26.27
2022-08-11T09:31:21.926Z,26.28
2022-08-11T09:33:25.403Z,26.45
2022-08-11T09:35:29.344Z,26.66
2022-08-11T09:37:55.350Z,27.02
2022-08-11T09:40:18.318Z,26.66
2022-08-11T09:42:24.013Z,27.15
2022-08-11T09:45:03.319Z,27.61
2022-08-11T09:47:08.283Z,27.72
2022-08-11T09:49:10.937Z,27.52
2022-08-11T09:51:15.623Z,27.83
2022-08-11T09:53:36.535Z,27.52
2022-08-11T09:55:41.011Z,27.63
2022-08-11T09:58:06.080Z,27.22
2022-08-11T10:00:13.473Z,27.25
2022-08-11T10:02:18.567Z,27.43
2022-08-11T10:04:34.994Z,27.56
2022-08-11T10:06:57.973Z,27.39
2022-08-11T10:09:00.980Z,27.57
2022-08-11T10:11:04.094Z,27.49
2022-08-11T10:14:04.893Z,27.33
2022-08-11T10:15:55.709Z,27.86
2022-08-11T10:18:30.082Z,27.62
2022-08-11T10:20:35.400Z,27.68
2022-08-11T10:22:56.654Z,27.42
2022-08-11T10:25:19.990Z,27.40
2022-08-11T10:27:28.629Z,27.71
2022-08-11T10:30:05.595Z,27.54
2022-08-11T10:32:31.436Z,27.49
2022-08-11T10:34:35.579Z,27.74
2022-08-11T10:36:50.646Z,27.94
2022-08-11T10:38:53.268Z,28.00
2022-08-11T10:41:14.741Z,28.51
2022-08-11T10:44:01.935Z,28.47
2022-08-11T10:46:01.559Z,28.49
2022-08-11T10:48:06.247Z,28.28
2022-08-11T10:50:29.713Z,28.44
2022-08-11T10:52:50.968Z,28.43
2022-08-11T10:55:12.202Z,28.50
2022-08-11T10:57:36.163Z,28.40
2022-08-11T10:59:38.952Z,28.38
2022-08-11T11:01:44.197Z,28.94
2022-08-11T11:03:47.791Z,29.18
2022-08-11T11:06:13.214Z,29.18
2022-08-11T11:08:35.462Z,29.22
2022-08-11T11:10:41.004Z,29.54
2022-08-11T11:13:05.557Z,29.03
2022-08-11T11:15:27.809Z,28.30
2022-08-11T11:17:54.446Z,28.43
2022-08-11T11:20:00.624Z,28.35
2022-08-11T11:22:23.170Z,28.50
2022-08-11T11:24:45.956Z,28.91
2022-08-11T11:26:56.004Z,29.99
2022-08-11T11:29:13.345Z,31.28
2022-08-11T11:31:43.450Z,32.20
2022-08-11T11:34:06.643Z,32.29
2022-08-11T11:36:55.295Z,32.86
2022-08-11T11:38:59.348Z,32.19
2022-08-11T11:41:20.746Z,31.16
2022-08-11T11:43:23.133Z,30.67
2022-08-11T11:45:26.169Z,30.46
2022-08-11T11:47:30.153Z,29.59
2022-08-11T11:49:33.326Z,29.35
2022-08-11T11:51:37.989Z,29.00
2022-08-11T11:53:45.170Z,28.97
2022-08-11T11:55:47.817Z,28.87
2022-08-11T11:58:10.923Z,28.95
2022-08-11T12:00:43.309Z,28.70
2022-08-11T12:02:46.384Z,28.84
2022-08-11T12:04:48.956Z,28.65
2022-08-11T12:07:12.032Z,28.66
2022-08-11T12:09:18.460Z,28.87
2022-08-11T12:11:43.472Z,28.64
2022-08-11T12:13:51.064Z,28.80
2022-08-11T12:16:32.241Z,29.03
2022-08-11T12:18:17.178Z,31.38
2022-08-11T12:20:33.881Z,33.65
2022-08-11T12:22:55.742Z,34.34
2022-08-11T12:25:16.939Z,36.24
2022-08-11T12:27:37.208Z,36.98
2022-08-11T12:29:45.324Z,36.44
2022-08-11T12:31:49.166Z,34.97
2022-08-11T12:33:51.582Z,34.61
2022-08-11T12:36:00.576Z,35.23
2022-08-11T12:38:10.772Z,35.51
2022-08-11T12:41:13.849Z,35.48
2022-08-11T12:43:36.926Z,35.08
2022-08-11T12:45:43.122Z,34.75
2022-08-11T12:48:59.956Z,33.22
2022-08-11T12:50:50.297Z,32.50
2022-08-11T12:52:57.042Z,31.81
2022-08-11T12:55:08.515Z,31.10
2022-08-11T12:57:37.241Z,31.30
2022-08-11T12:59:59.783Z,31.04
2022-08-11T13:02:22.353Z,30.75
2022-08-11T13:04:47.448Z,30.78
2022-08-11T13:06:54.380Z,30.37
2022-08-11T13:09:01.265Z,31.62
2022-08-11T13:11:23.519Z,31.76
2022-08-11T13:13:26.894Z,31.59
2022-08-11T13:15:50.202Z,31.85
2022-08-11T13:17:55.581Z,31.78
2022-08-11T13:19:59.648Z,31.46
2022-08-11T13:22:07.555Z,31.89
2022-08-11T13:24:10.269Z,31.64
2022-08-11T13:26:13.210Z,31.38
2022-08-11T13:28:18.629Z,30.87
2022-08-11T13:30:47.125Z,31.13
2022-08-11T13:32:50.773Z,30.59
2022-08-11T13:34:53.505Z,30.59
2022-08-11T13:37:00.203Z,30.93
2022-08-11T13:39:03.649Z,30.96
2022-08-11T13:41:26.209Z,30.85
2022-08-11T13:43:29.608Z,30.34
2022-08-11T13:45:33.823Z,30.27
2022-08-11T13:47:39.553Z,30.12
2022-08-11T13:49:45.049Z,30.08
2022-08-11T13:51:47.919Z,30.02
2022-08-11T13:53:50.516Z,30.09
2022-08-11T13:55:54.267Z,30.24
2022-08-11T13:58:07.180Z,30.16
2022-08-11T14:00:27.611Z,30.18
2022-08-11T14:02:31.917Z,30.72
2022-08-11T14:04:40.521Z,30.35
2022-08-11T14:06:49.061Z,30.50
2022-08-11T14:08:53.697Z,30.17
2022-08-11T14:12:22.487Z,30.14
2022-08-11T14:13:48.176Z,30.17
2022-08-11T14:15:52.913Z,29.96
2022-08-11T14:18:01.765Z,30.23
2022-08-11T14:20:38.677Z,29.97
2022-08-11T14:22:32.313Z,30.84
2022-08-11T14:24:49.682Z,30.00
2022-08-11T14:26:54.152Z,30.05
2022-08-11T14:29:15.182Z,30.28
2022-08-11T14:31:17.934Z,29.79
2022-08-11T14:33:20.509Z,30.02
2022-08-11T14:35:27.473Z,29.92
2022-08-11T14:37:30.015Z,30.00
2022-08-11T14:39:36.225Z,30.07
2022-08-11T14:42:10.365Z,30.07
2022-08-11T14:44:33.764Z,29.93
2022-08-11T14:46:56.322Z,29.78
2022-08-11T14:48:59.899Z,29.88
2022-08-11T14:51:02.357Z,29.85
2022-08-11T14:53:10.532Z,29.76
2022-08-11T14:55:38.140Z,29.57
2022-08-11T14:57:55.152Z,29.58
2022-08-11T15:00:03.918Z,29.98
2022-08-11T15:02:26.925Z,29.88
2022-08-11T15:04:36.533Z,29.83
2022-08-11T15:06:39.665Z,29.38
2022-08-11T15:08:57.458Z,29.33
2022-08-11T15:11:00.172Z,29.30
2022-08-11T15:13:04.160Z,29.36
2022-08-11T15:15:27.119Z,29.21
2022-08-11T15:17:42.926Z,29.24
2022-08-11T15:20:06.588Z,29.08
2022-08-11T15:22:29.545Z,29.15
2022-08-11T15:24:35.204Z,29.17
2022-08-11T15:26:58.902Z,29.25
2022-08-11T15:29:23.439Z,29.29
2022-08-11T15:31:49.122Z,29.11
2022-08-11T15:34:14.393Z,29.08
2022-08-11T15:36:39.703Z,29.02
2022-08-11T15:38:55.467Z,29.04
2022-08-11T15:41:18.774Z,28.87
2022-08-11T15:43:44.002Z,28.75
2022-08-11T15:45:50.581Z,28.64
2022-08-11T15:48:05.349Z,28.57
2022-08-11T15:50:14.919Z,28.65
2022-08-11T15:52:21.511Z,28.51
2022-08-11T15:54:26.511Z,28.50
2022-08-11T15:56:32.267Z,28.41
2022-08-11T15:59:40.519Z,28.54
2022-08-11T16:01:43.061Z,28.38
2022-08-11T16:04:12.579Z,28.24
2022-08-11T16:06:16.662Z,28.31
2022-08-11T16:08:26.072Z,28.11
2022-08-11T16:10:36.688Z,27.82
2022-08-11T16:13:20.471Z,27.75
2022-08-11T16:15:41.182Z,27.87
2022-08-11T16:17:52.377Z,27.65
2022-08-11T16:19:56.844Z,27.81
2022-08-11T16:21:59.427Z,27.75
2022-08-11T16:24:06.685Z,27.69
2022-08-11T16:27:08.420Z,27.47
2022-08-11T16:28:36.023Z,27.78
2022-08-11T16:30:41.594Z,27.97
2022-08-11T16:32:53.070Z,27.87
2022-08-11T16:35:17.492Z,27.81
2022-08-11T16:37:42.344Z,27.80
2022-08-11T16:39:45.362Z,27.73
2022-08-11T16:43:00.041Z,27.57
2022-08-11T16:44:53.629Z,27.23
2022-08-11T16:47:01.085Z,27.43
2022-08-11T16:49:18.565Z,27.28
2022-08-11T16:51:22.747Z,27.17
2022-08-11T16:53:54.581Z,27.04
2022-08-11T16:55:53.074Z,27.27
2022-08-11T16:58:14.939Z,26.96
2022-08-11T17:00:18.275Z,27.02
2022-08-11T17:02:43.114Z,26.74
2022-08-11T17:05:14.666Z,26.90
2022-08-11T17:07:41.512Z,26.63
2022-08-11T17:10:31.869Z,26.78
2022-08-11T17:12:52.142Z,26.50
2022-08-11T17:15:02.642Z,26.73
2022-08-11T17:17:12.929Z,26.71
2022-08-11T17:20:38.632Z,26.51
2022-08-11T17:22:11.733Z,26.45
2022-08-11T17:24:15.024Z,26.03
2022-08-11T17:26:49.804Z,25.85
2022-08-11T17:28:59.473Z,25.66
2022-08-11T17:31:23.601Z,25.37
2022-08-11T17:33:45.222Z,25.50
2022-08-11T17:35:48.991Z,25.39
2022-08-11T17:37:53.370Z,25.21
2022-08-11T17:39:56.344Z,25.36
2022-08-11T17:42:19.704Z,25.14
2022-08-11T17:44:41.595Z,25.08
2022-08-11T17:47:06.283Z,24.96
2022-08-11T17:49:11.480Z,24.90
2022-08-11T17:51:39.422Z,24.85
2022-08-11T17:54:16.932Z,24.85
2022-08-11T17:56:44.174Z,24.68
2022-08-11T17:59:09.277Z,24.68
2022-08-11T18:01:13.027Z,24.62
2022-08-11T18:03:33.191Z,24.33
2022-08-11T18:05:37.902Z,24.04
2022-08-11T18:08:02.778Z,24.57
2022-08-11T18:10:26.329Z,24.58
2022-08-11T18:12:47.330Z,24.42
2022-08-11T18:15:11.921Z,24.24
2022-08-11T18:17:33.183Z,23.96
2022-08-11T18:19:54.856Z,23.97
2022-08-11T18:22:24.588Z,23.87
2022-08-11T18:24:51.514Z,23.77
2022-08-11T18:27:14.010Z,23.74
2022-08-11T18:29:42.067Z,23.51
2022-08-11T18:32:08.252Z,23.61
2022-08-11T18:34:34.714Z,23.62
2022-08-11T18:37:19.594Z,23.73
2022-08-11T18:39:56.122Z,23.81
2022-08-11T18:42:30.850Z,24.00
2022-08-11T18:44:53.944Z,24.06
2022-08-11T18:47:16.570Z,23.99
2022-08-11T18:50:04.017Z,23.87
2022-08-11T18:52:25.961Z,23.90
2022-08-11T18:54:52.630Z,23.89
2022-08-11T18:57:18.918Z,23.76
2022-08-11T18:59:45.493Z,23.83
2022-08-11T19:02:07.225Z,23.60
2022-08-11T19:04:30.680Z,23.56
2022-08-11T19:06:55.147Z,23.82
2022-08-11T19:09:19.440Z,24.05
2022-08-11T19:11:43.746Z,24.14
2022-08-11T19:14:07.007Z,23.79
2022-08-11T19:16:29.224Z,23.78
2022-08-11T19:18:52.718Z,23.84
2022-08-11T19:21:15.806Z,23.82
2022-08-11T19:23:43.513Z,23.68
2022-08-11T19:26:06.243Z,23.70
2022-08-11T19:28:27.881Z,23.60
2022-08-11T19:30:50.764Z,23.77
2022-08-11T19:33:13.466Z,23.42
2022-08-11T19:35:35.272Z,23.58
2022-08-11T19:37:59.128Z,23.65
2022-08-11T19:40:26.511Z,23.72
2022-08-11T19:42:48.331Z,23.63
2022-08-11T19:45:09.862Z,23.51
2022-08-11T19:47:32.470Z,23.52
2022-08-11T19:49:54.296Z,23.35
2022-08-11T19:52:17.213Z,23.60
2022-08-11T19:54:38.726Z,23.55
2022-08-11T19:57:01.710Z,23.42
2022-08-11T19:59:24.052Z,23.57
2022-08-11T20:02:12.953Z,23.65
2022-08-11T20:04:26.606Z,23.47
2022-08-11T20:06:49.563Z,23.27
2022-08-11T20:09:14.682Z,23.33
2022-08-11T20:11:37.131Z,23.43
2022-08-11T20:14:01.876Z,23.65
2022-08-11T20:16:23.796Z,23.60
2022-08-11T20:18:46.107Z,23.36
2022-08-11T20:21:17.311Z,23.40
2022-08-11T20:23:47.891Z,23.45
2022-08-11T20:26:31.845Z,23.32
2022-08-11T20:28:52.446Z,23.58
2022-08-11T20:31:14.182Z,23.01
2022-08-11T20:33:37.183Z,23.01
2022-08-11T20:35:58.881Z,23.04
2022-08-11T20:38:21.516Z,23.01
2022-08-11T20:40:44.132Z,22.95
2022-08-11T20:43:05.898Z,23.09
2022-08-11T20:45:53.543Z,23.12
2022-08-11T20:48:21.082Z,23.10
2022-08-11T20:50:46.165Z,22.76
2022-08-11T20:53:09.231Z,22.80
2022-08-11T20:55:46.108Z,22.95
2022-08-11T20:58:17.698Z,22.67
2022-08-11T21:00:40.156Z,22.98
2022-08-11T21:03:02.722Z,22.63
2022-08-11T21:06:10.447Z,22.81
2022-08-11T21:08:09.607Z,22.74
2022-08-11T21:10:35.219Z,22.48
2022-08-11T21:12:59.140Z,22.75
2022-08-11T21:15:47.369Z,22.64
2022-08-11T21:18:28.568Z,22.84
2022-08-11T21:20:52.190Z,22.72
2022-08-11T21:23:24.514Z,22.71
2022-08-11T21:25:47.280Z,22.95
2022-08-11T21:28:10.448Z,22.52
2022-08-11T21:30:31.912Z,22.51
2022-08-11T21:32:54.047Z,22.71
2022-08-11T21:35:17.775Z,22.68
2022-08-11T21:37:39.833Z,22.64
2022-08-11T21:40:04.764Z,22.48
2022-08-11T21:42:29.438Z,22.47
2022-08-11T21:44:51.162Z,22.18
2022-08-11T21:47:17.331Z,22.20
2022-08-11T21:49:42.044Z,22.26
2022-08-11T21:52:03.564Z,22.31
2022-08-11T21:54:25.736Z,22.26
2022-08-11T21:56:49.773Z,22.15
2022-08-11T21:59:12.327Z,22.27
2022-08-11T22:01:34.427Z,22.29
2022-08-11T22:03:57.936Z,22.08
2022-08-11T22:06:19.590Z,22.13
2022-08-11T22:08:42.168Z,22.25
2022-08-11T22:11:03.451Z,22.23
2022-08-11T22:13:24.419Z,22.42
2022-08-11T22:15:45.681Z,22.44
2022-08-11T22:18:06.859Z,22.48
2022-08-11T22:20:30.535Z,22.49
2022-08-11T22:22:53.751Z,22.23
2022-08-11T22:25:18.341Z,22.18
2022-08-11T22:27:40.468Z,22.44
2022-08-11T22:30:01.466Z,22.12
2022-08-11T22:32:24.568Z,22.17
